Data for 05/08/2010

Time Sea-Level Adjusted Pressure Absolute Pressure Temperature Relative Humidity Dew Point   
(mb) (inHg) (mb) (inHg) (C) (F) (%) (C) (F)
00:05 1023 30.21 852 25.16 0.9 33.5 61 -5.9 21.4
00:10 1023 30.21 852 25.16 0.7 33.3 61 -5.9 21.4
00:15 1023 30.21 852 25.16 0.8 33.4 60 -6 21.1
00:20 1023 30.21 852 25.16 0.8 33.4 62 -5.8 21.6
00:25 1023 30.21 852 25.16 0.7 33.2 62 -5.9 21.4
00:30 1023 30.21 852 25.16 0.7 33.2 62 -5.8 21.5
00:35 1023 30.21 852 25.16 0.6 33 62 -6 21.2
00:40 1023 30.21 852 25.16 0.6 33 62 -5.9 21.5
00:45 1023 30.21 852 25.16 0.5 32.9 63 -5.8 21.6
00:50 1023 30.21 852 25.16 0.5 32.9 62 -5.9 21.3
00:55 1023 30.21 852 25.16 0.5 32.9 63 -5.7 21.7
01:00 1023 30.21 852 25.16 0.3 32.6 64 -5.8 21.6
01:05 1023 30.21 852 25.16 0.3 32.5 64 -5.7 21.7
01:10 1023 30.21 852 25.16 0.3 32.5 64 -5.8 21.6
01:15 1023 30.21 852 25.16 0.1 32.2 65 -5.7 21.7
01:20 1023 30.21 852 25.16 0 32.1 65 -5.8 21.6
01:25 1023 30.21 852 25.16 0 32.1 65 -5.8 21.5
01:30 1023 30.21 852 25.16 -0 31.9 66 -5.7 21.7
01:35 1023 30.21 852 25.16 -0.1 31.9 65 -5.9 21.4
01:40 1023 30.21 852 25.16 -0 31.9 64 -6 21.3
01:45 1023 30.21 852 25.16 -0.1 31.9 65 -5.9 21.3
01:50 1023 30.21 852 25.16 -0.2 31.7 65 -5.9 21.3
01:55 1023 30.21 852 25.16 -0.2 31.6 65 -6.1 21.1
02:00 1023 30.21 852 25.16 -0.2 31.6 64 -6.2 20.9
02:05 1022 30.18 852 25.16 -0.2 31.6 65 -6 21.2
02:10 1022 30.18 852 25.16 -0.3 31.5 65 -6 21.2
02:15 1022 30.18 852 25.16 -0.4 31.3 65 -6.2 20.9
02:20 1022 30.18 851 25.13 -0.4 31.3 66 -6 21.2
02:25 1022 30.18 851 25.13 -0.5 31.1 67 -5.9 21.3
02:30 1022 30.18 851 25.13 -0.5 31 68 -5.8 21.6
02:35 1022 30.18 851 25.13 -0.6 30.9 68 -5.9 21.4
02:40 1022 30.18 851 25.13 -0.6 30.9 68 -5.9 21.4
02:45 1022 30.18 851 25.13 -0.7 30.8 68 -5.9 21.4
02:50 1022 30.18 851 25.13 -0.7 30.7 68 -5.8 21.5
02:55 1022 30.18 851 25.13 -0.8 30.6 69 -5.8 21.6
03:00 1022 30.18 851 25.13 -0.8 30.5 69 -5.8 21.5
03:05 1022 30.18 851 25.13 -0.9 30.4 70 -5.8 21.6
03:10 1022 30.18 851 25.13 -1 30.3 70 -5.7 21.7
03:15 1022 30.18 851 25.13 -1 30.2 71 -5.6 21.9
03:20 1022 30.18 851 25.13 -1.1 30.1 71 -5.7 21.8
03:25 1022 30.18 851 25.13 -1.1 30.1 71 -5.7 21.7
03:30 1022 30.18 851 25.13 -1.1 30.1 71 -5.7 21.7
03:35 1022 30.18 851 25.13 -1 30.1 71 -5.7 21.8
03:40 1022 30.18 851 25.13 -1.1 30 72 -5.6 21.9
03:45 1022 30.18 851 25.13 -1.2 29.9 72 -5.6 21.9
03:50 1022 30.18 851 25.13 -1.3 29.7 73 -5.5 22
03:55 1021 30.15 851 25.13 -1.4 29.6 74 -5.4 22.2
04:00 1021 30.15 851 25.13 -1.4 29.5 74 -5.5 22
04:05 1021 30.15 851 25.13 -1.5 29.4 74 -5.5 22.2
04:10 1021 30.15 850 25.1 -1.5 29.3 74 -5.5 22.1
04:15 1021 30.15 850 25.1 -1.5 29.4 74 -5.5 22.1
04:20 1021 30.15 850 25.1 -1.5 29.3 75 -5.4 22.2
04:25 1021 30.15 850 25.1 -1.5 29.2 75 -5.5 22.2
04:30 1021 30.15 850 25.1 -1.5 29.3 74 -5.5 22.1
04:35 1021 30.15 850 25.1 -1.5 29.4 74 -5.5 22.1
04:40 1021 30.15 850 25.1 -1.4 29.4 74 -5.5 22.1
04:45 1021 30.15 850 25.1 -1.5 29.4 74 -5.6 21.9
04:50 1021 30.15 850 25.1 -1.6 29.2 74 -5.7 21.8
04:55 1021 30.15 850 25.1 -1.6 29.2 73 -5.8 21.6
05:00 1021 30.15 850 25.1 -1.5 29.3 73 -5.8 21.6
05:05 1021 30.15 850 25.1 -1.6 29.1 74 -5.7 21.8
05:10 1021 30.15 850 25.1 -1.6 29.2 74 -5.6 21.9
05:15 1021 30.15 850 25.1 -1.6 29.1 75 -5.5 22
05:20 1021 30.15 850 25.1 -1.6 29.1 74 -5.7 21.8
05:25 1021 30.15 850 25.1 -1.6 29 74 -5.6 21.8
05:30 1021 30.15 850 25.1 -1.7 29 75 -5.6 21.9
05:35 1021 30.15 850 25.1 -1.7 28.9 74 -5.7 21.7
05:40 1021 30.15 850 25.1 -1.7 29 74 -5.8 21.6
05:45 1020 30.12 850 25.1 -1.7 29 74 -5.7 21.7
05:50 1020 30.12 850 25.1 -1.6 29.1 74 -5.7 21.8
05:55 1020 30.12 850 25.1 -1.7 29 74 -5.7 21.7
06:00 1020 30.12 850 25.1 -1.7 29 74 -5.7 21.8
06:05 1020 30.12 849 25.07 -1.7 29 74 -5.7 21.7
06:10 1020 30.12 849 25.07 -1.6 29.1 74 -5.6 21.9
06:15 1020 30.12 849 25.07 -1.7 29 75 -5.5 22
06:20 1020 30.12 849 25.07 -1.7 29 74 -5.6 21.9
06:25 1020 30.12 849 25.07 -1.6 29.2 74 -5.7 21.8
06:30 1020 30.12 849 25.07 -1.5 29.2 74 -5.5 22
06:35 1020 30.12 849 25.07 -1.5 29.2 74 -5.5 22.1
06:40 1020 30.12 849 25.07 -1.5 29.3 74 -5.5 22.1
06:45 1020 30.12 849 25.07 -1.5 29.4 74 -5.5 22
06:50 1020 30.12 849 25.07 -1.4 29.4 74 -5.4 22.2
06:55 1020 30.12 849 25.07 -1.3 29.7 72 -5.7 21.8
07:00 1020 30.12 849 25.07 -1.2 29.9 72 -5.6 22
07:05 1020 30.12 849 25.07 -1.2 29.9 73 -5.4 22.3
07:10 1020 30.12 849 25.07 -1.2 29.8 73 -5.5 22.1
07:15 1020 30.12 849 25.07 -1.2 29.8 73 -5.5 22.2
07:20 1020 30.12 849 25.07 -1.1 30 71 -5.7 21.8
07:25 1020 30.12 849 25.07 -1 30.2 70 -5.7 21.7
07:30 1020 30.12 849 25.07 -0.9 30.3 69 -5.9 21.5
07:35 1020 30.12 849 25.07 -0.8 30.6 70 -5.6 21.9
07:40 1020 30.12 849 25.07 -0.6 30.9 68 -5.9 21.4
07:45 1020 30.12 849 25.07 -0.4 31.3 66 -5.9 21.4
07:50 1020 30.12 849 25.07 -0.3 31.5 65 -6.1 20.9
07:55 1020 30.12 849 25.07 -0.1 31.8 66 -5.8 21.5
08:00 1020 30.12 849 25.07 -0.1 31.8 66 -5.7 21.7
08:05 1020 30.12 849 25.07 -0.1 31.9 64 -6.1 21
08:10 1020 30.12 849 25.07 -0 32 64 -5.9 21.3
08:15 1019 30.09 849 25.07 0.1 32.1 64 -6 21.3
08:20 1019 30.09 849 25.07 0.3 32.5 63 -6 21.2
08:25 1019 30.09 849 25.07 0.5 32.9 62 -6 21.2
08:30 1019 30.09 849 25.07 0.7 33.2 61 -6.1 21
08:35 1019 30.09 849 25.07 0.8 33.5 60 -6 21.2
08:40 1019 30.09 849 25.07 1.2 34.2 59 -5.9 21.3
08:45 1019 30.09 848 25.04 1.6 34.9 57 -5.9 21.3
08:50 1019 30.09 848 25.04 1.6 34.9 57 -6 21.2
08:55 1019 30.09 848 25.04 1.7 35 56 -6.1 21
09:00 1019 30.09 848 25.04 1.8 35.2 57 -5.8 21.5
09:05 1019 30.09 848 25.04 1.9 35.5 56 -5.9 21.3
09:10 1019 30.09 848 25.04 2.1 35.9 56 -5.7 21.7
09:15 1019 30.09 848 25.04 2.3 36.1 55 -5.9 21.3
09:20 1019 30.09 848 25.04 2.4 36.4 53 -6.1 21
09:25 1019 30.09 848 25.04 2.6 36.7 54 -5.9 21.4
09:30 1019 30.09 848 25.04 3 37.5 52 -5.9 21.4
09:35 1019 30.09 848 25.04 3 37.5 51 -6 21.2
09:40 1019 30.09 848 25.04 3.1 37.6 52 -5.9 21.4
09:45 1019 30.09 848 25.04 3.3 38 50 -6.1 21
09:50 1019 30.09 848 25.04 3.3 38 51 -5.8 21.6
09:55 1019 30.09 848 25.04 3.5 38.3 49 -6.1 21
10:00 1019 30.09 848 25.04 3.5 38.3 49 -6.3 20.7
10:05 1019 30.09 848 25.04 4.3 39.7 48 -5.7 21.8
10:10 1018 30.06 848 25.04 4.2 39.6 48 -5.8 21.6
10:15 1018 30.06 848 25.04 4.4 39.9 47 -6 21.3
10:20 1018 30.06 848 25.04 4.6 40.3 46 -6 21.2
10:25 1018 30.06 847 25.01 4.6 40.3 47 -5.7 21.7
10:30 1018 30.06 847 25.01 4.8 40.6 46 -5.8 21.5
10:35 1018 30.06 847 25.01 5.1 41.1 45 -5.9 21.4
10:40 1018 30.06 847 25.01 5 41 46 -5.8 21.5
10:45 1018 30.06 847 25.01 5.1 41.2 46 -5.6 22
10:50 1018 30.06 847 25.01 5.2 41.4 45 -5.7 21.7
10:55 1018 30.06 847 25.01 5.5 41.9 46 -5.3 22.4
11:00 1018 30.06 847 25.01 5.2 41.3 46 -5.6 21.9
11:05 1018 30.06 847 25.01 5.1 41.2 46 -5.5 22
11:10 1018 30.06 847 25.01 5.4 41.7 46 -5.4 22.2
11:15 1018 30.06 847 25.01 5.4 41.6 48 -4.8 23.3
11:20 1017 30.03 847 25.01 5.5 41.9 47 -4.9 23.1
11:25 1017 30.03 847 25.01 5.5 42 48 -4.7 23.6
11:30 1017 30.03 847 25.01 5.7 42.3 46 -4.9 23.1
11:35 1017 30.03 846 24.98 5.7 42.3 47 -4.7 23.5
11:40 1017 30.03 846 24.98 5.8 42.5 44 -5.4 22.2
11:45 1017 30.03 846 24.98 5.9 42.6 47 -4.6 23.7
11:50 1017 30.03 846 24.98 6.4 43.5 43 -5.4 22.3
11:55 1017 30.03 846 24.98 6.5 43.7 45 -4.6 23.8
12:00 1017 30.03 846 24.98 6.5 43.8 45 -4.6 23.7
12:05 1017 30.03 846 24.98 6.2 43.1 46 -4.7 23.6
12:10 1017 30.03 846 24.98 6.7 44 45 -4.5 23.9
12:15 1017 30.03 846 24.98 6.8 44.2 45 -4.2 24.4
12:20 1017 30.03 846 24.98 6.8 44.2 46 -4 24.8
12:25 1017 30.03 846 24.98 6.6 43.8 46 -4.1 24.6
12:30 1016 30 846 24.98 7 44.5 45 -4.2 24.4
12:35 1016 30 846 24.98 7.1 44.8 45 -4.1 24.6
12:40 1016 30 845 24.95 6.8 44.2 46 -3.9 25
12:45 1016 30 845 24.95 7.1 44.7 47 -3.6 25.6
12:50 1016 30 845 24.95 7.1 44.8 45 -4 24.8
12:55 1016 30 845 24.95 7.2 45 45 -4 24.9
13:00 1016 30 845 24.95 7.2 44.9 45 -3.8 25.1
13:05 1016 30 845 24.95 7.2 44.9 46 -3.6 25.6
13:10 1016 30 845 24.95 7.2 44.9 45 -3.9 24.9
13:15 1016 30 845 24.95 7.1 44.7 43 -4.6 23.7
13:20 1016 30 845 24.95 7.1 44.8 45 -3.9 24.9
13:25 1016 30 845 24.95 7.2 45 43 -4.5 23.9
13:30 1016 30 845 24.95 7 44.6 46 -4 24.9
13:35 1016 30 845 24.95 7.3 45.2 44 -4 24.8
13:40 1016 30 845 24.95 7.6 45.6 44 -3.8 25.2
13:45 1015 29.97 845 24.95 7.7 45.9 43 -4.1 24.6
13:50 1015 29.97 845 24.95 7.6 45.7 42 -4.4 24.1
13:55 1015 29.97 844 24.92 7.5 45.6 42 -4.6 23.8
14:00 1015 29.97 844 24.92 7.7 45.9 41 -4.6 23.7
14:05 1015 29.97 844 24.92 8 46.3 41 -4.5 23.9
14:10 1015 29.97 844 24.92 7.7 45.9 42 -4.3 24.2
14:15 1015 29.97 844 24.92 8.1 46.6 41 -4.3 24.2
14:20 1015 29.97 844 24.92 8.2 46.8 39 -4.8 23.3
14:25 1015 29.97 844 24.92 8.2 46.8 38 -5.2 22.7
14:30 1015 29.97 844 24.92 8.2 46.8 37 -5.6 21.9
14:35 1015 29.97 844 24.92 8.4 47 35 -6.3 20.7
14:40 1015 29.97 844 24.92 8.3 47 33 -7 19.4
14:45 1015 29.97 844 24.92 8.4 47.1 32 -7.2 19.1
14:50 1015 29.97 844 24.92 8.4 47 33 -7 19.3
14:55 1015 29.97 844 24.92 8.5 47.3 32 -7.1 19.3
15:00 1015 29.97 844 24.92 8.7 47.6 34 -6.4 20.6
15:05 1015 29.97 844 24.92 9 48.1 35 -5.8 21.6
15:10 1014 29.94 844 24.92 9 48.1 36 -5.4 22.2
15:15 1014 29.94 844 24.92 8.8 47.9 36 -5.3 22.5
15:20 1014 29.94 844 24.92 9 48.2 35 -5.6 21.9
15:25 1014 29.94 843 24.89 9 48.1 37 -4.9 23.1
15:30 1014 29.94 843 24.89 9.1 48.4 39 -4.1 24.5
15:35 1014 29.94 843 24.89 9.6 49.2 36 -4.8 23.4
15:40 1014 29.94 843 24.89 9.2 48.5 36 -5.2 22.6
15:45 1014 29.94 843 24.89 9.2 48.6 36 -5 23.1
15:50 1014 29.94 843 24.89 9.6 49.2 34 -5.5 22.1
15:55 1014 29.94 843 24.89 9.4 48.9 33 -5.9 21.3
16:00 1014 29.94 843 24.89 9.4 48.8 33 -5.9 21.3
16:05 1014 29.94 843 24.89 9.4 48.9 33 -5.9 21.4
16:10 1014 29.94 843 24.89 9.5 49.1 33 -6.1 21
16:15 1013 29.91 843 24.89 9.5 49.2 33 -6 21.1
16:20 1013 29.91 843 24.89 9.7 49.5 32 -6.2 20.8
16:25 1013 29.91 843 24.89 9.7 49.5 32 -6.2 20.9
16:30 1013 29.91 843 24.89 9.6 49.2 33 -6 21.3
16:35 1013 29.91 842 24.86 9.4 48.9 33 -6.2 20.8
16:40 1013 29.91 842 24.86 9.5 49.2 32 -6.3 20.7
16:45 1013 29.91 842 24.86 9.4 48.9 31 -6.7 20
16:50 1013 29.91 842 24.86 9.2 48.6 32 -6.8 19.8
16:55 1013 29.91 842 24.86 9.3 48.8 32 -6.6 20.1
17:00 1013 29.91 842 24.86 9.4 48.9 31 -7 19.5
17:05 1013 29.91 842 24.86 9.4 49 30 -7.3 18.8
17:10 1013 29.91 842 24.86 9.4 49 30 -7.1 19.2
17:15 1013 29.91 842 24.86 9.4 48.9 29 -7.8 18
17:20 1013 29.91 842 24.86 9.3 48.7 30 -7.3 18.9
17:25 1013 29.91 843 24.89 9.3 48.7 30 -7.4 18.6
17:30 1014 29.94 843 24.89 9.2 48.6 30 -7.4 18.7
17:35 1014 29.94 843 24.89 9.1 48.4 31 -7.3 18.8
17:40 1014 29.94 843 24.89 9.1 48.4 31 -7.3 18.8
17:45 1014 29.94 843 24.89 9.1 48.3 31 -7.4 18.8
17:50 1014 29.94 843 24.89 9.1 48.4 31 -7.3 18.9
17:55 1014 29.94 843 24.89 9.1 48.5 31 -7.1 19.2
18:00 1014 29.94 843 24.89 9.1 48.4 30 -7.4 18.7
18:05 1014 29.94 843 24.89 9 48.2 31 -7.1 19.2
18:10 1014 29.94 843 24.89 9.2 48.6 31 -7 19.3
18:15 1014 29.94 843 24.89 9.2 48.5 32 -6.8 19.8
18:20 1014 29.94 843 24.89 9.4 48.8 32 -6.4 20.5
18:25 1014 29.94 843 24.89 9.3 48.8 34 -5.7 21.8
18:30 1014 29.94 843 24.89 9.1 48.4 35 -5.4 22.2
18:35 1014 29.94 843 24.89 9 48.2 34 -5.9 21.4
18:40 1014 29.94 843 24.89 9 48.1 35 -5.7 21.7
18:45 1014 29.94 843 24.89 8.9 48 38 -4.7 23.5
18:50 1014 29.94 843 24.89 8.6 47.5 40 -4.1 24.6
18:55 1014 29.94 843 24.89 8.4 47.2 40 -4.5 24
19:00 1014 29.94 843 24.89 8.5 47.2 38 -5.1 22.8
19:05 1014 29.94 843 24.89 8.4 47.1 39 -4.9 23.2
19:10 1014 29.94 843 24.89 8.3 47 39 -4.8 23.3
19:15 1014 29.94 843 24.89 8.4 47 38 -5 22.9
19:20 1014 29.94 843 24.89 8.3 47 38 -5.3 22.5
19:25 1013 29.91 843 24.89 8.3 47 37 -5.5 22.1
19:30 1013 29.91 843 24.89 8.3 46.9 38 -5.3 22.4
19:35 1013 29.91 843 24.89 8.2 46.8 38 -5.3 22.5
19:40 1013 29.91 843 24.89 8.2 46.7 38 -5.4 22.3
19:45 1013 29.91 843 24.89 8.1 46.6 38 -5.4 22.3
19:50 1013 29.91 843 24.89 8.1 46.6 38 -5.2 22.6
19:55 1014 29.94 843 24.89 8.1 46.5 38 -5.4 22.3
20:00 1014 29.94 843 24.89 8.1 46.5 38 -5.4 22.2
20:05 1014 29.94 843 24.89 8 46.4 40 -4.9 23.2
20:10 1014 29.94 843 24.89 7.9 46.2 38 -5.4 22.3
20:15 1014 29.94 843 24.89 7.9 46.3 39 -5 23
20:20 1014 29.94 843 24.89 7.9 46.3 40 -4.8 23.4
20:25 1014 29.94 843 24.89 7.8 46.1 42 -4.3 24.3
20:30 1014 29.94 843 24.89 7.9 46.3 46 -3.1 26.5
20:35 1014 29.94 843 24.89 8.2 46.7 49 -2 28.4
20:40 1014 29.94 843 24.89 8 46.4 51 -1.5 29.4
20:45 1014 29.94 843 24.89 7.8 46 55 -0.8 30.6
20:50 1014 29.94 843 24.89 7.3 45.2 57 -0.5 31.1
20:55 1014 29.94 843 24.89 7.1 44.7 59 -0.3 31.4
21:00 1014 29.94 843 24.89 6.8 44.2 60 -0.4 31.3
21:05 1014 29.94 843 24.89 6.6 43.9 62 -0.2 31.6
21:10 1014 29.94 843 24.89 6.3 43.3 64 0 32.1
21:15 1014 29.94 843 24.89 6.1 42.9 65 0.1 32.1
21:20 1014 29.94 843 24.89 5.9 42.6 66 -0 32
21:25 1014 29.94 843 24.89 5.8 42.4 61 -1.1 30.1
21:30 1014 29.94 843 24.89 5.7 42.3 60 -1.5 29.4
21:35 1014 29.94 843 24.89 5.6 42.1 61 -1.4 29.5
21:40 1014 29.94 843 24.89 5.4 41.8 62 -1.2 29.8
21:45 1014 29.94 843 24.89 5.3 41.5 64 -1 30.1
21:50 1014 29.94 843 24.89 5.1 41.2 64 -1.2 29.9
21:55 1014 29.94 843 24.89 5 41 65 -1.1 30
22:00 1014 29.94 843 24.89 4.8 40.7 67 -0.9 30.4
22:05 1014 29.94 843 24.89 4.6 40.3 67 -0.9 30.4
22:10 1014 29.94 843 24.89 4.5 40 68 -0.9 30.4
22:15 1014 29.94 843 24.89 4.4 40 67 -1.1 30
22:20 1014 29.94 843 24.89 4.5 40 67 -1 30.1
22:25 1014 29.94 843 24.89 4.5 40.1 67 -1.1 30
22:30 1014 29.94 843 24.89 4.4 40 68 -1 30.2
22:35 1014 29.94 843 24.89 4.3 39.7 68 -1.1 30.1
22:40 1014 29.94 843 24.89 4.3 39.7 68 -1.1 30
22:45 1014 29.94 843 24.89 4.4 39.9 67 -1.2 29.9
22:50 1014 29.94 843 24.89 4.5 40 67 -1.2 29.8
22:55 1014 29.94 843 24.89 4.6 40.2 66 -1.2 29.9
23:00 1014 29.94 843 24.89 4.6 40.3 66 -1.1 30
23:05 1014 29.94 843 24.89 4.6 40.4 67 -1 30.3
23:10 1014 29.94 843 24.89 4.6 40.2 68 -0.9 30.4
23:15 1014 29.94 843 24.89 4.6 40.2 67 -0.9 30.3
23:20 1014 29.94 843 24.89 4.7 40.4 67 -0.9 30.4
23:25 1014 29.94 843 24.89 4.7 40.4 67 -0.8 30.5
23:30 1014 29.94 843 24.89 4.6 40.2 67 -0.9 30.3
23:35 1014 29.94 844 24.92 4.4 40 68 -0.9 30.4
23:40 1014 29.94 844 24.92 4.4 39.9 68 -0.9 30.4
23:45 1015 29.97 844 24.92 4.6 40.3 68 -0.8 30.6
23:50 1015 29.97 844 24.92 4.7 40.5 68 -0.7 30.8
23:55 1015 29.97 844 24.92 4.8 40.6 73 0.3 32.5
24:00 1015 29.97 844 24.92 4.7 40.4 77 1 33.8